createdAt,value
2018-06-22T00:00:12.886Z,1.40
2018-06-22T00:02:41.330Z,1.43
2018-06-22T00:05:10.737Z,1.30
2018-06-22T00:07:40.321Z,1.70
2018-06-22T00:10:09.208Z,1.57
2018-06-22T00:12:38.821Z,1.60
2018-06-22T00:15:07.317Z,1.87
2018-06-22T00:17:35.898Z,1.50
2018-06-22T00:20:04.478Z,1.53
2018-06-22T00:22:32.949Z,1.90
2018-06-22T00:25:01.591Z,1.80
2018-06-22T00:27:30.102Z,1.60
2018-06-22T00:29:58.675Z,1.73
2018-06-22T00:32:27.128Z,1.80
2018-06-22T00:34:55.771Z,1.60
2018-06-22T00:37:24.265Z,1.53
2018-06-22T00:39:52.709Z,1.57
2018-06-22T00:42:21.139Z,2.30
2018-06-22T00:44:49.731Z,1.80
2018-06-22T00:47:18.167Z,1.70
2018-06-22T00:49:46.705Z,1.70
2018-06-22T00:52:15.444Z,1.77
2018-06-22T00:54:43.885Z,1.80
2018-06-22T00:57:12.488Z,1.73
2018-06-22T00:59:41.043Z,1.90
2018-06-22T01:02:10.108Z,1.70
2018-06-22T01:04:39.602Z,1.77
2018-06-22T01:07:08.202Z,1.80
2018-06-22T01:09:36.717Z,2.03
2018-06-22T01:12:05.351Z,1.90
2018-06-22T01:14:33.519Z,1.90
2018-06-22T01:17:01.904Z,1.70
2018-06-22T01:19:30.593Z,1.80
2018-06-22T01:21:59.076Z,1.70
2018-06-22T01:24:27.701Z,1.67
2018-06-22T01:26:56.067Z,2.20
2018-06-22T01:29:31.819Z,2.10
2018-06-22T01:32:01.371Z,1.80
2018-06-22T01:34:29.869Z,1.90
2018-06-22T01:36:58.314Z,2.00
2018-06-22T01:39:26.832Z,1.90
2018-06-22T01:41:56.267Z,1.57
2018-06-22T01:44:24.868Z,2.10
2018-06-22T01:46:53.449Z,2.07
2018-06-22T01:49:21.935Z,2.20
2018-06-22T01:51:50.369Z,1.87
2018-06-22T01:54:18.997Z,1.70
2018-06-22T01:56:47.501Z,1.93
2018-06-22T01:59:16.056Z,2.00
2018-06-22T02:01:44.539Z,2.27
2018-06-22T02:04:13.088Z,2.10
2018-06-22T02:06:41.625Z,1.93
2018-06-22T02:09:11.963Z,2.00
2018-06-22T02:11:40.503Z,1.93
2018-06-22T02:14:09.722Z,2.10
2018-06-22T02:16:39.135Z,2.00
2018-06-22T02:19:07.845Z,2.17
2018-06-22T02:21:36.257Z,2.20
2018-06-22T02:24:04.734Z,2.17
2018-06-22T02:26:33.166Z,2.20
2018-06-22T02:29:01.649Z,2.07
2018-06-22T02:31:30.138Z,1.90
2018-06-22T02:33:58.698Z,2.53
2018-06-22T02:36:27.313Z,1.90
2018-06-22T02:38:55.828Z,1.90
2018-06-22T02:41:25.315Z,2.10
2018-06-22T02:43:53.778Z,2.53
2018-06-22T02:46:22.266Z,1.90
2018-06-22T02:48:50.779Z,2.33
2018-06-22T02:51:20.550Z,1.80
2018-06-22T02:53:49.045Z,1.73
2018-06-22T02:57:47.759Z,1.93
2018-06-22T03:00:15.947Z,2.00
2018-06-22T03:02:44.525Z,1.93
2018-06-22T03:05:12.999Z,2.20
2018-06-22T03:07:41.512Z,2.20
2018-06-22T03:10:09.927Z,1.77
2018-06-22T03:12:39.392Z,1.90
2018-06-22T03:15:08.630Z,2.30
2018-06-22T03:17:37.811Z,1.90
2018-06-22T03:20:07.508Z,2.20
2018-06-22T03:22:36.272Z,1.90
2018-06-22T03:25:05.245Z,1.90
2018-06-22T03:27:33.761Z,2.20
2018-06-22T03:30:02.236Z,2.27
2018-06-22T03:32:30.804Z,2.00
2018-06-22T03:34:59.345Z,1.80
2018-06-22T03:37:27.576Z,2.23
2018-06-22T03:39:56.081Z,1.97
2018-06-22T03:42:24.518Z,1.93
2018-06-22T03:44:53.103Z,2.10
2018-06-22T03:47:21.711Z,2.20
2018-06-22T03:49:50.141Z,2.43
2018-06-22T03:52:18.698Z,2.50
2018-06-22T03:54:47.094Z,2.53
2018-06-22T03:57:15.710Z,2.47
2018-06-22T03:59:44.187Z,2.60
2018-06-22T04:02:12.746Z,2.60
2018-06-22T04:04:41.212Z,2.40
2018-06-22T04:07:10.293Z,2.23
2018-06-22T04:09:39.372Z,2.43
2018-06-22T04:12:08.648Z,2.80
2018-06-22T04:14:37.772Z,2.80
2018-06-22T04:17:06.926Z,2.70
2018-06-22T04:19:35.341Z,2.80
2018-06-22T04:22:03.819Z,2.90
2018-06-22T04:24:32.253Z,2.80
2018-06-22T04:27:00.831Z,2.80
2018-06-22T04:29:29.439Z,3.07
2018-06-22T04:31:57.949Z,3.37
2018-06-22T04:34:26.418Z,3.27
2018-06-22T04:36:54.950Z,4.27
2018-06-22T04:39:23.465Z,4.20
2018-06-22T04:41:52.052Z,3.20
2018-06-22T04:44:20.622Z,2.73
2018-06-22T04:46:49.187Z,2.83
2018-06-22T04:49:17.651Z,2.73
2018-06-22T04:51:46.212Z,2.77
2018-06-22T04:54:14.620Z,2.60
2018-06-22T04:56:43.140Z,2.70
2018-06-22T04:59:11.764Z,2.53
2018-06-22T05:01:40.280Z,3.00
2018-06-22T05:04:09.809Z,2.63
2018-06-22T05:06:39.216Z,2.60
2018-06-22T05:09:09.088Z,2.90
2018-06-22T05:11:38.332Z,2.50
2018-06-22T05:14:07.386Z,2.33
2018-06-22T05:16:36.006Z,2.93
2018-06-22T05:19:04.548Z,2.70
2018-06-22T05:21:33.042Z,2.57
2018-06-22T05:24:01.535Z,2.83
2018-06-22T05:26:30.115Z,2.40
2018-06-22T05:28:58.568Z,2.60
2018-06-22T05:31:27.154Z,2.57
2018-06-22T05:33:55.552Z,2.70
2018-06-22T05:36:24.031Z,2.50
2018-06-22T05:38:52.529Z,2.77
2018-06-22T05:41:21.169Z,2.67
2018-06-22T05:43:50.039Z,3.23
2018-06-22T05:46:18.524Z,2.90
2018-06-22T05:48:46.939Z,3.10
2018-06-22T05:51:15.378Z,3.63
2018-06-22T05:53:43.826Z,3.07
2018-06-22T05:56:12.367Z,3.33
2018-06-22T05:58:40.857Z,3.60
2018-06-22T06:01:09.951Z,3.23
2018-06-22T06:03:39.109Z,3.17
2018-06-22T06:06:07.856Z,3.40
2018-06-22T06:08:36.339Z,4.00
2018-06-22T06:11:04.914Z,3.53
2018-06-22T06:13:33.593Z,3.50
2018-06-22T06:16:02.176Z,3.43
2018-06-22T06:18:30.607Z,3.43
2018-06-22T06:20:59.061Z,4.13
2018-06-22T06:23:27.513Z,3.50
2018-06-22T06:25:56.040Z,4.30
2018-06-22T06:28:24.497Z,3.80
2018-06-22T06:30:52.994Z,3.87
2018-06-22T06:33:21.535Z,3.60
2018-06-22T06:35:50.021Z,4.20
2018-06-22T06:38:18.961Z,3.90
2018-06-22T06:40:47.467Z,4.33
2018-06-22T06:43:16.247Z,4.33
2018-06-22T06:45:45.037Z,4.30
2018-06-22T06:48:13.572Z,3.77
2018-06-22T06:50:42.127Z,3.70
2018-06-22T06:53:10.790Z,4.10
2018-06-22T06:55:39.971Z,4.53
2018-06-22T06:58:08.539Z,4.67
2018-06-22T07:00:37.309Z,4.50
2018-06-22T07:03:06.085Z,4.47
2018-06-22T07:05:34.484Z,4.43
2018-06-22T07:08:03.082Z,4.53
2018-06-22T07:10:31.719Z,4.30
2018-06-22T07:13:00.141Z,3.80
2018-06-22T07:15:28.666Z,3.60
2018-06-22T07:17:57.195Z,3.27
2018-06-22T07:20:26.737Z,3.20
2018-06-22T07:22:55.224Z,3.30
2018-06-22T07:25:23.775Z,2.90
2018-06-22T07:27:52.265Z,2.57
2018-06-22T07:30:21.806Z,2.70
2018-06-22T07:32:50.257Z,2.80
2018-06-22T07:35:18.813Z,2.57
2018-06-22T07:37:47.268Z,2.37
2018-06-22T07:40:16.973Z,2.00
2018-06-22T07:42:45.449Z,2.13
2018-06-22T07:45:14.053Z,2.20
2018-06-22T07:47:42.523Z,1.70
2018-06-22T07:50:11.021Z,1.77
2018-06-22T07:52:40.037Z,1.70
2018-06-22T07:55:09.162Z,2.50
2018-06-22T07:57:38.730Z,1.40
2018-06-22T08:00:07.172Z,1.40
2018-06-22T08:02:35.874Z,1.70
2018-06-22T08:05:04.680Z,1.27
2018-06-22T08:07:33.210Z,1.73
2018-06-22T08:10:01.700Z,1.40
2018-06-22T08:12:30.098Z,1.70
2018-06-22T08:14:58.625Z,1.70
2018-06-22T08:17:27.209Z,1.50
2018-06-22T08:19:55.765Z,1.60
2018-06-22T08:22:24.289Z,1.40
2018-06-22T08:24:52.829Z,1.90
2018-06-22T08:27:21.341Z,1.87
2018-06-22T08:29:49.890Z,1.40
2018-06-22T08:32:18.816Z,1.73
2018-06-22T08:34:47.399Z,1.50
2018-06-22T08:37:16.040Z,1.60
2018-06-22T08:39:44.632Z,1.63
2018-06-22T08:42:13.116Z,1.97
2018-06-22T08:44:41.820Z,1.43
2018-06-22T08:47:10.327Z,1.53
2018-06-22T08:49:38.888Z,1.40
2018-06-22T08:52:07.352Z,1.50
2018-06-22T08:54:35.524Z,2.07
2018-06-22T08:57:03.986Z,1.80
2018-06-22T08:59:32.555Z,2.00
2018-06-22T09:02:00.974Z,1.67
2018-06-22T09:04:29.561Z,1.63
2018-06-22T09:06:58.008Z,1.70
2018-06-22T09:09:26.445Z,1.87
2018-06-22T09:11:54.932Z,1.70
2018-06-22T09:14:23.516Z,1.40
2018-06-22T09:16:51.980Z,1.90
2018-06-22T09:19:20.497Z,1.40
2018-06-22T09:21:49.597Z,1.60
2018-06-22T09:24:18.899Z,1.70
2018-06-22T09:26:47.413Z,1.63
2018-06-22T09:29:16.015Z,1.43
2018-06-22T09:31:44.459Z,1.73
2018-06-22T09:34:12.978Z,1.73
2018-06-22T09:36:41.547Z,1.33
2018-06-22T09:39:11.729Z,1.33
2018-06-22T09:41:40.434Z,1.50
2018-06-22T09:44:13.864Z,1.50
2018-06-22T09:46:42.358Z,1.50
2018-06-22T09:49:10.837Z,1.87
2018-06-22T09:51:39.393Z,1.90
2018-06-22T09:54:07.893Z,1.37
2018-06-22T09:56:36.279Z,1.43
2018-06-22T09:59:04.798Z,1.60
2018-06-22T10:01:33.264Z,1.40
2018-06-22T10:04:01.725Z,1.80
2018-06-22T10:06:30.249Z,1.53
2018-06-22T10:08:58.699Z,1.53
2018-06-22T10:11:27.255Z,1.60
2018-06-22T10:13:55.981Z,1.23
2018-06-22T10:16:24.511Z,1.50
2018-06-22T10:18:53.031Z,1.37
2018-06-22T10:21:21.513Z,1.40
2018-06-22T10:23:50.555Z,1.87
2018-06-22T10:26:19.269Z,1.60
2018-06-22T10:28:47.720Z,1.93
2018-06-22T10:31:16.177Z,1.50
2018-06-22T10:33:44.831Z,1.73
2018-06-22T10:36:13.398Z,2.00
2018-06-22T10:38:42.192Z,2.40
2018-06-22T10:41:11.677Z,1.97
2018-06-22T10:43:40.509Z,2.23
2018-06-22T10:46:09.002Z,1.70
2018-06-22T10:48:37.732Z,1.93
2018-06-22T10:51:06.247Z,2.00
2018-06-22T10:53:35.152Z,1.70
2018-06-22T10:56:03.664Z,1.90
2018-06-22T10:58:32.243Z,1.90
2018-06-22T11:01:00.812Z,1.93
2018-06-22T11:03:29.388Z,2.17
2018-06-22T11:05:57.844Z,1.80
2018-06-22T11:08:26.431Z,2.30
2018-06-22T11:10:54.887Z,2.23
2018-06-22T11:13:23.412Z,1.83
2018-06-22T11:15:51.843Z,2.00
2018-06-22T11:18:20.398Z,2.17
2018-06-22T11:20:49.037Z,1.80
2018-06-22T11:23:17.648Z,2.40
2018-06-22T11:25:46.091Z,1.93
2018-06-22T11:28:14.672Z,1.93
2018-06-22T11:30:43.887Z,2.47
2018-06-22T11:33:12.712Z,2.37
2018-06-22T11:35:41.935Z,2.30
2018-06-22T11:38:11.309Z,2.20
2018-06-22T11:40:41.106Z,1.80
2018-06-22T11:43:10.674Z,2.03
2018-06-22T11:45:39.642Z,1.53
2018-06-22T11:48:08.144Z,2.17
2018-06-22T11:50:36.585Z,2.07
2018-06-22T11:53:05.139Z,2.10
2018-06-22T11:55:33.864Z,1.83
2018-06-22T11:58:02.325Z,1.80
2018-06-22T12:00:30.834Z,1.90
2018-06-22T12:02:59.372Z,2.40
2018-06-22T12:05:27.881Z,1.90
2018-06-22T12:07:56.399Z,2.23
2018-06-22T12:10:24.888Z,2.20
2018-06-22T12:12:53.492Z,2.07
2018-06-22T12:15:22.001Z,2.10
2018-06-22T12:17:50.487Z,2.13
2018-06-22T12:20:18.921Z,2.00
2018-06-22T12:22:47.697Z,2.10
2018-06-22T12:25:16.175Z,2.13
2018-06-22T12:27:44.675Z,2.13
2018-06-22T12:30:13.107Z,1.67
2018-06-22T12:32:41.653Z,2.37
2018-06-22T12:35:10.120Z,1.90
2018-06-22T12:37:38.570Z,2.37
2018-06-22T12:40:07.016Z,2.30
2018-06-22T12:42:35.565Z,2.60
2018-06-22T12:45:04.093Z,2.07
2018-06-22T12:47:32.833Z,1.90
2018-06-22T12:50:01.338Z,2.40
2018-06-22T12:52:29.849Z,2.17
2018-06-22T12:54:58.288Z,2.07
2018-06-22T12:57:26.787Z,2.13
2018-06-22T12:59:55.284Z,2.23
2018-06-22T13:02:23.788Z,2.20
2018-06-22T13:04:52.273Z,2.33
2018-06-22T13:07:21.568Z,2.20
2018-06-22T13:09:50.051Z,2.30
2018-06-22T13:12:18.557Z,2.40
2018-06-22T13:14:46.981Z,2.23
2018-06-22T13:17:15.513Z,2.50
2018-06-22T13:19:44.036Z,2.23
2018-06-22T13:22:12.607Z,2.37
2018-06-22T13:24:41.077Z,2.10
2018-06-22T13:27:09.916Z,2.53
2018-06-22T13:29:38.398Z,2.07
2018-06-22T13:32:06.910Z,2.00
2018-06-22T13:34:35.396Z,2.43
2018-06-22T13:37:03.970Z,2.10
2018-06-22T13:39:32.473Z,1.97
2018-06-22T13:42:01.063Z,2.10
2018-06-22T13:44:29.563Z,2.33
2018-06-22T13:46:58.195Z,2.27
2018-06-22T13:49:26.706Z,2.00
2018-06-22T13:51:55.636Z,2.23
2018-06-22T13:54:24.180Z,2.50
2018-06-22T13:56:52.868Z,2.70
2018-06-22T13:59:21.562Z,1.90
2018-06-22T14:01:51.783Z,2.60
2018-06-22T14:04:25.797Z,2.20
2018-06-22T14:06:56.227Z,2.03
2018-06-22T14:09:24.812Z,2.30
2018-06-22T14:11:53.436Z,1.97
2018-06-22T14:14:22.022Z,1.90
2018-06-22T14:16:50.515Z,1.63
2018-06-22T14:19:19.147Z,2.03
2018-06-22T14:21:48.396Z,1.80
2018-06-22T14:24:16.898Z,2.03
2018-06-22T14:26:45.451Z,1.80
2018-06-22T14:29:13.925Z,1.77
2018-06-22T14:31:43.175Z,1.90
2018-06-22T14:34:11.781Z,1.97
2018-06-22T14:36:40.406Z,2.10
2018-06-22T14:39:09.441Z,1.80
2018-06-22T14:41:38.692Z,1.80
2018-06-22T14:44:07.270Z,1.70
2018-06-22T14:46:36.032Z,1.73
2018-06-22T14:49:04.749Z,2.07
2018-06-22T14:51:33.244Z,2.10
2018-06-22T14:54:07.133Z,2.07
2018-06-22T14:56:41.069Z,1.80
2018-06-22T14:59:15.098Z,1.90
2018-06-22T15:01:49.108Z,1.70
2018-06-22T15:04:23.122Z,1.70
2018-06-22T15:06:57.124Z,1.93
2018-06-22T15:09:25.877Z,1.70
2018-06-22T15:11:54.320Z,2.00
2018-06-22T15:14:22.977Z,1.80
2018-06-22T15:16:51.674Z,1.70
2018-06-22T15:19:20.265Z,2.00
2018-06-22T15:21:48.829Z,1.70
2018-06-22T15:24:17.336Z,1.97
2018-06-22T15:26:45.907Z,1.87
2018-06-22T15:29:14.338Z,1.90
2018-06-22T15:31:43.862Z,1.77
2018-06-22T15:35:21.633Z,1.80
2018-06-22T15:37:55.291Z,1.90
2018-06-22T15:40:29.284Z,1.80
2018-06-22T15:43:04.301Z,2.20
2018-06-22T15:45:38.561Z,2.20
2018-06-22T15:48:12.610Z,2.00
2018-06-22T15:50:46.684Z,1.90
2018-06-22T15:53:21.592Z,2.23
2018-06-22T15:55:50.824Z,2.40
2018-06-22T15:58:19.309Z,2.10
2018-06-22T16:00:48.074Z,1.90
2018-06-22T16:03:22.062Z,2.33
2018-06-22T16:05:50.530Z,2.17
2018-06-22T16:08:19.426Z,2.70
2018-06-22T16:10:47.908Z,2.77
2018-06-22T16:13:21.657Z,2.40
2018-06-22T16:15:55.538Z,2.33
2018-06-22T16:18:29.372Z,2.90
2018-06-22T16:21:03.436Z,2.70
2018-06-22T16:23:37.280Z,2.93
2018-06-22T16:26:11.505Z,2.27
2018-06-22T16:28:40.265Z,2.20
2018-06-22T16:31:09.467Z,2.33
2018-06-22T16:33:42.568Z,1.90
2018-06-22T16:36:11.686Z,1.93
2018-06-22T16:38:40.150Z,2.13
2018-06-22T16:41:09.799Z,2.70
2018-06-22T16:43:38.309Z,2.10
2018-06-22T16:46:07.935Z,2.37
2018-06-22T16:48:37.673Z,1.90
2018-06-22T16:51:06.501Z,2.10
2018-06-22T16:53:34.991Z,1.90
2018-06-22T16:56:03.548Z,2.70
2018-06-22T16:58:37.373Z,2.17
2018-06-22T17:01:07.307Z,2.30
2018-06-22T17:03:35.805Z,2.47
2018-06-22T17:06:04.576Z,2.63
2018-06-22T17:08:38.462Z,2.50
2018-06-22T17:11:12.291Z,2.03
2018-06-22T17:13:46.086Z,1.97
2018-06-22T17:16:20.291Z,2.20
2018-06-22T17:18:54.354Z,2.20
2018-06-22T17:21:23.172Z,2.50
2018-06-22T17:23:52.025Z,2.00
2018-06-22T17:26:20.499Z,2.17
2018-06-22T17:28:49.019Z,2.20
2018-06-22T17:31:17.487Z,2.20
2018-06-22T17:33:46.053Z,3.53
2018-06-22T17:36:14.577Z,2.50
2018-06-22T17:38:43.086Z,2.20
2018-06-22T17:41:11.614Z,2.40
2018-06-22T17:43:40.188Z,2.43
2018-06-22T17:46:09.327Z,2.07
2018-06-22T17:48:38.468Z,2.20
2018-06-22T17:51:06.946Z,2.03
2018-06-22T17:53:35.445Z,2.17
2018-06-22T17:56:03.983Z,2.00
2018-06-22T17:58:32.601Z,1.77
2018-06-22T18:01:06.400Z,2.13
2018-06-22T18:03:40.734Z,2.40
2018-06-22T18:06:15.480Z,2.37
2018-06-22T18:08:45.643Z,2.40
2018-06-22T18:11:19.553Z,2.80
2018-06-22T18:13:48.151Z,3.30
2018-06-22T18:16:16.718Z,4.07
2018-06-22T18:18:45.153Z,5.40
2018-06-22T18:21:14.025Z,6.10
2018-06-22T18:23:42.800Z,4.67
2018-06-22T18:26:11.376Z,4.70
2018-06-22T18:28:40.472Z,4.07
2018-06-22T19:53:12.556Z,2.20
2018-06-22T19:55:41.148Z,2.30
2018-06-22T19:58:10.041Z,2.47
2018-06-22T20:00:39.247Z,2.17
2018-06-22T20:03:08.362Z,2.83
2018-06-22T20:05:36.874Z,2.70
2018-06-22T20:08:05.490Z,2.33
2018-06-22T20:10:34.158Z,2.40
2018-06-22T20:13:02.937Z,2.57
2018-06-22T20:15:31.536Z,2.30
2018-06-22T20:17:59.985Z,2.50
2018-06-22T20:20:28.579Z,2.30
2018-06-22T20:22:57.129Z,2.47
2018-06-22T20:25:31.068Z,2.43
2018-06-22T20:27:59.560Z,2.40
2018-06-22T20:30:28.181Z,2.63
2018-06-22T20:32:56.594Z,2.87
2018-06-22T20:35:30.707Z,2.90
2018-06-22T20:38:05.368Z,2.50
2018-06-22T20:40:39.151Z,2.70
2018-06-22T20:43:12.935Z,2.57
2018-06-22T20:45:47.072Z,2.80
2018-06-22T20:48:21.235Z,2.67
2018-06-22T20:50:49.850Z,2.70
2018-06-22T20:53:18.442Z,2.70
2018-06-22T20:55:46.939Z,2.77
2018-06-22T20:58:15.439Z,2.83
2018-06-22T21:00:43.936Z,2.47
2018-06-22T21:03:12.438Z,2.40
2018-06-22T21:05:41.120Z,2.50
2018-06-22T21:08:10.432Z,2.97
2018-06-22T21:10:39.578Z,3.23
2018-06-22T21:13:08.754Z,2.70
2018-06-22T21:15:37.344Z,2.70
2018-06-22T21:18:06.660Z,2.80
2018-06-22T21:20:35.107Z,2.93
2018-06-22T21:23:03.614Z,2.90
2018-06-22T21:25:32.199Z,2.93
2018-06-22T21:28:05.988Z,2.87
2018-06-22T21:30:39.688Z,2.90
2018-06-22T21:33:13.530Z,3.20
2018-06-22T21:35:47.972Z,3.27
2018-06-22T21:38:21.993Z,3.03
2018-06-22T21:40:50.645Z,3.20
2018-06-22T21:43:19.224Z,3.07
2018-06-22T21:45:47.764Z,3.23
2018-06-22T21:48:16.353Z,3.07
2018-06-22T21:50:44.779Z,3.00
2018-06-22T21:53:13.401Z,3.97
2018-06-22T21:55:41.940Z,2.90
2018-06-22T21:58:10.214Z,3.00
2018-06-22T22:00:39.845Z,2.90
2018-06-22T22:03:08.806Z,3.00
2018-06-22T22:05:37.224Z,3.20
2018-06-22T22:08:05.932Z,2.87
2018-06-22T22:10:39.652Z,3.20
2018-06-22T22:13:08.696Z,3.60
2018-06-22T22:15:38.078Z,2.87
2018-06-22T22:18:06.576Z,3.07
2018-06-22T22:20:36.159Z,3.30
2018-06-22T22:23:05.362Z,3.53
2018-06-22T22:25:34.316Z,3.70
2018-06-22T22:28:02.871Z,3.40
2018-06-22T22:30:32.428Z,3.23
2018-06-22T22:33:00.884Z,2.80
2018-06-22T22:35:29.368Z,3.40
2018-06-22T22:37:57.920Z,3.13
2018-06-22T22:40:27.458Z,3.40
2018-06-22T22:42:55.901Z,3.17
2018-06-22T22:45:24.375Z,2.90
2018-06-22T22:47:52.848Z,3.37
2018-06-22T22:50:23.160Z,3.30
2018-06-22T22:52:51.603Z,3.63
2018-06-22T22:55:20.192Z,3.60
2018-06-22T22:57:48.690Z,4.37
2018-06-22T23:00:17.335Z,3.70
2018-06-22T23:02:45.796Z,3.80
2018-06-22T23:05:14.314Z,4.20
2018-06-22T23:07:42.735Z,4.40
2018-06-22T23:10:11.995Z,3.93
2018-06-22T23:12:41.026Z,3.80
2018-06-22T23:15:09.569Z,3.47
2018-06-22T23:17:38.425Z,3.60
2018-06-22T23:20:07.342Z,3.43
2018-06-22T23:22:47.207Z,3.07
2018-06-22T23:25:16.094Z,3.07
2018-06-22T23:29:13.911Z,2.90
2018-06-22T23:31:42.422Z,2.93
2018-06-22T23:34:12.028Z,2.93
2018-06-22T23:36:41.344Z,2.93
2018-06-22T23:39:10.789Z,3.37
2018-06-22T23:41:40.474Z,3.10
2018-06-22T23:44:09.608Z,3.50
2018-06-22T23:46:38.180Z,2.97
2018-06-22T23:49:07.023Z,2.90
2018-06-22T23:51:35.633Z,3.10
2018-06-22T23:54:04.834Z,3.70
2018-06-22T23:56:33.752Z,4.00
2018-06-22T23:59:02.301Z,4.80
